Lackland Air Force Base (Kelly Field Annex) Airport
KSKF : now visible

Airfield :











YOU CAN JOIN US ON...

 
LOGIN :

Register | Disclaimer

   EN    FR    IT 

 









Legend :    VFR   Marginal VFR   IFR   Intensive IFR   Very Intensive IFR
Visi :
Ceiling :
>= 8 km
>= 3000ft
5 to 8 km
1000 to 3000 ft
1500m to 5 km
500 to 1000 ft
800 to 1500m
200 to 500 ft
< 800m
< 200 ft
Symbols :   Thunderstorms  Fog  Heavy snow  Heavy precipitations  Wind > 20 kt







- Airport Elevation : 691 ft


KSKF - Lackland Air Force Base (Kelly Field Annex)

CURRENT METAR :
  • 252156Z AUTO 07009KT 10SM SCT065 28/16 A3005 RMK AO2 SLP170 T02780158

EXPIRED METARs :
  • 252056Z AUTO 08008G17KT 10SM FEW060 29/16 A3006 RMK AO2 SLP173 T02900162 57019
  • 251956Z AUTO 07005KT 10SM CLR 28/17 A3008 RMK AO2 SLP180 T02800172

TAF TAF KSKF
Valid from the 25 at 18:00 until the 27 at 00:00 UTC


251800Z 2518/2624 VRB05KT 9999 SCT020 BKN035 BKN200 QNH3008INS
BECMG 2519/2520 04009KT 9999 SCT035 BKN200 QNH3003INS
BECMG 2600/2600 05006KT 9999 SCT200 QNH3000INS TX29/2521Z TN14/2610Z
KZHU FIR / North America



MET'MAP, your aeronautical weather chart ! - Copyright ORBIFLY December 2007 - Disclaimer

ORBIFLY MET'MAP TEAM :

Programming & Development : Alexandra Zaïnal
Concept & Development : Baudouin d'Aumeries
Co-Development & Prog : Marc-Olivier Méhu
Technical & hardware support : Manuel Goepfert

Contact : metmap@orbifly.com




SOURCES & CREDITS :

   NOAA       Earth
Advisory